De Kalb, Missouri
Current Conditions -  °F | °C
As of 5:53 PM on Monday 24 Nov 2014 (Local Time) from KSTJ Reporting Station
Clear Clear  
Wind Chill: 21°   Ceiling: Unl
Heat Index: 29°   Visibility: 10mi
Dew Point: 20°   Wind: 8mph
Humidity: 69%   Direction: 290°WNW
Pressure: 29.95"   Gusts: NA
Location:  39.59°N, 94.93°W
Report Text: KSTJ 242353Z AUTO 29007KT 10SM CLR M02/M07 A2995 RMK AO2 SLP149 T10171067 10028 21017 53034
Loading
Personal Weather Stations






























Interactive Weather Map New forecast layout! Learn more

10-Day Weather Forecast

Advertisements
Track Severe Weather on mobile